M/T Arcadia — SY7849 — position and weather

sailwx.info

Track history (hours):
 
Tides and Currents Weather Stations Pressure Air Temp Water Temp Dewpoint Dewpoint Depression Visibility Wind Speed Wind Dir Waves Ship Positions

M/T Arcadia

Last reported at 2015-Apr-17 13:18 UTC. Time now 2015-Apr-18 20:47 UTC.
Position N 35°33' E 024°04'.

Length 76 m; draft 4.8 m.

Type: Ship. MMSI: 240560000.

Date/timePositionNaut miles runAvg speedWind from/ knotsBaromVisibWave heightAir tempDewpointWater temp
2015-Apr-17 13:18N 35°33' E 024°04'14 4.8
2015-Apr-17 10:16N 35°41' E 023°49'110 7.4
2015-Apr-16 19:25N 37°30' E 023°34'11 8.2
2015-Apr-16 18:05N 37°38' E 023°25'4 8.2
2015-Apr-16 17:33N 37°39' E 023°20'17 8.0
2015-Apr-16 15:28N 37°53' E 023°08'2 0.1
2015-Apr-15 21:08N 37°55' E 023°06'0 0.0
2015-Apr-15 18:29N 37°55' E 023°06'9 1.0
2015-Apr-15 09:05N 37°48' E 023°13'15 8.3
2015-Apr-15 07:17N 37°38' E 023°27'6 8.1
2015-Apr-15 06:30N 37°33' E 023°33'89 8.8
2015-Apr-14 20:20N 36°06' E 023°54'22 7.7
2015-Apr-14 17:32N 35°44' E 023°60'9 8.3
2015-Apr-14 16:27N 35°36' E 024°02'68 3.1
2015-Apr-13 18:11N 36°43' E 023°47'5 8.2
2015-Apr-13 17:32N 36°48' E 023°45'8 8.0
2015-Apr-13 16:33N 36°55' E 023°43'8 8.1
2015-Apr-13 15:33N 37°04' E 023°41'8 7.9
2015-Apr-13 14:33N 37°11' E 023°40'8 7.9
2015-Apr-13 13:33N 37°19' E 023°38'8 7.8
2015-Apr-13 12:33N 37°27' E 023°36'8 7.7
2015-Apr-13 11:33N 37°34' E 023°34'8 7.7
2015-Apr-13 10:33N 37°39' E 023°26'7 7.5
2015-Apr-13 09:33N 37°41' E 023°17'8 8.3
2015-Apr-13 08:33N 37°49' E 023°12'8 7.6
2015-Apr-13 07:28N 37°55' E 023°05'1 0.0
2015-Apr-12 10:22N 37°54' E 023°06'6 7.8
2015-Apr-12 09:33N 37°49' E 023°12'9 8.6
2015-Apr-12 08:33N 37°42' E 023°17'9 8.2
2015-Apr-12 07:31N 37°39' E 023°27'7 7.7
2015-Apr-12 06:33N 37°34' E 023°34'9 8.9
2015-Apr-12 05:33N 37°25' E 023°37'  
Track history (hours):
 
Tides and Currents Weather Stations Pressure Air Temp Water Temp Dewpoint Dewpoint Depression Visibility Wind Speed Wind Dir Waves Ship Positions

M/T Arcadia

Last reported at 2015-Apr-17 13:18 UTC. Time now 2015-Apr-18 20:47 UTC.
Position N 35°33' E 024°04'.

Length 76 m; draft 4.8 m.

Type: Ship. MMSI: 240560000.

Date/timePositionNaut miles runAvg speedWind from/ knotsBaromVisibWave heightAir tempDewpointWater temp
2015-Apr-17 13:18N 35°33' E 024°04'14 4.8
2015-Apr-17 10:16N 35°41' E 023°49'110 7.4
2015-Apr-16 19:25N 37°30' E 023°34'11 8.2
2015-Apr-16 18:05N 37°38' E 023°25'4 8.2
2015-Apr-16 17:33N 37°39' E 023°20'17 8.0
2015-Apr-16 15:28N 37°53' E 023°08'2 0.1
2015-Apr-15 21:08N 37°55' E 023°06'0 0.0
2015-Apr-15 18:29N 37°55' E 023°06'9 1.0
2015-Apr-15 09:05N 37°48' E 023°13'15 8.3
2015-Apr-15 07:17N 37°38' E 023°27'6 8.1
2015-Apr-15 06:30N 37°33' E 023°33'89 8.8
2015-Apr-14 20:20N 36°06' E 023°54'22 7.7
2015-Apr-14 17:32N 35°44' E 023°60'9 8.3
2015-Apr-14 16:27N 35°36' E 024°02'68 3.1
2015-Apr-13 18:11N 36°43' E 023°47'5 8.2
2015-Apr-13 17:32N 36°48' E 023°45'8 8.0
2015-Apr-13 16:33N 36°55' E 023°43'8 8.1
2015-Apr-13 15:33N 37°04' E 023°41'8 7.9
2015-Apr-13 14:33N 37°11' E 023°40'8 7.9
2015-Apr-13 13:33N 37°19' E 023°38'8 7.8
2015-Apr-13 12:33N 37°27' E 023°36'8 7.7
2015-Apr-13 11:33N 37°34' E 023°34'8 7.7
2015-Apr-13 10:33N 37°39' E 023°26'7 7.5
2015-Apr-13 09:33N 37°41' E 023°17'8 8.3
2015-Apr-13 08:33N 37°49' E 023°12'8 7.6
2015-Apr-13 07:28N 37°55' E 023°05'1 0.0
2015-Apr-12 10:22N 37°54' E 023°06'6 7.8
2015-Apr-12 09:33N 37°49' E 023°12'9 8.6
2015-Apr-12 08:33N 37°42' E 023°17'9 8.2
2015-Apr-12 07:31N 37°39' E 023°27'7 7.7
2015-Apr-12 06:33N 37°34' E 023°34'9 8.9
2015-Apr-12 05:33N 37°25' E 023°37'  

Dump ship's entire track history